createdAt,value
2019-04-27T00:00:48.008Z,95647.48
2019-04-27T00:01:56.137Z,95650.10
2019-04-27T00:03:06.069Z,95654.05
2019-04-27T00:04:11.706Z,95644.03
2019-04-27T00:05:35.484Z,95654.67
2019-04-27T00:06:42.956Z,95654.13
2019-04-27T00:07:57.944Z,95651.20
2019-04-27T00:09:00.044Z,95647.02
2019-04-27T00:10:13.583Z,95641.45
2019-04-27T00:11:24.331Z,95639.56
2019-04-27T00:12:28.226Z,95639.56
2019-04-27T00:13:34.811Z,95640.00
2019-04-27T00:14:37.140Z,95634.20
2019-04-27T00:15:43.825Z,95627.22
2019-04-27T00:16:50.895Z,95627.22
2019-04-27T00:18:04.583Z,95628.98
2019-04-27T00:19:23.215Z,95636.25
2019-04-27T00:20:30.807Z,95629.30
2019-04-27T00:21:35.876Z,95636.25
2019-04-27T00:22:40.945Z,95634.94
2019-04-27T00:23:46.088Z,95634.16
2019-04-27T00:24:49.543Z,95641.10
2019-04-27T00:25:53.086Z,95642.55
2019-04-27T00:26:56.551Z,95639.29
2019-04-27T00:28:00.063Z,95639.08
2019-04-27T00:29:03.958Z,95630.58
2019-04-27T00:30:07.732Z,95631.67
2019-04-27T00:31:11.177Z,95636.16
2019-04-27T00:32:14.734Z,95631.88
2019-04-27T00:33:18.166Z,95627.22
2019-04-27T00:34:21.693Z,95630.36
2019-04-27T00:35:26.833Z,95624.03
2019-04-27T00:36:35.194Z,95623.00
2019-04-27T00:37:40.391Z,95621.15
2019-04-27T00:38:45.535Z,95615.70
2019-04-27T00:39:53.327Z,95617.73
2019-04-27T00:41:04.156Z,95628.09
2019-04-27T00:42:07.745Z,95629.27
2019-04-27T00:43:11.174Z,95627.02
2019-04-27T00:44:14.612Z,95627.02
2019-04-27T00:45:18.217Z,95625.00
2019-04-27T00:46:22.865Z,95624.00
2019-04-27T00:47:26.317Z,95624.42
2019-04-27T00:48:29.752Z,95623.69
2019-04-27T00:49:33.250Z,95625.31
2019-04-27T00:50:36.714Z,95625.73
2019-04-27T00:51:40.154Z,95629.42
2019-04-27T00:52:43.584Z,95628.45
2019-04-27T00:53:47.152Z,95627.94
2019-04-27T00:54:50.584Z,95628.72
2019-04-27T00:56:11.724Z,95629.77
2019-04-27T00:57:19.513Z,95629.77
2019-04-27T00:58:24.579Z,95625.00
2019-04-27T00:59:47.520Z,95625.00
2019-04-27T01:00:53.998Z,95620.67
2019-04-27T01:02:11.176Z,95625.57
2019-04-27T01:03:18.877Z,95623.16
2019-04-27T01:04:26.537Z,95612.34
2019-04-27T01:05:30.888Z,95612.34
2019-04-27T01:06:34.384Z,95620.52
2019-04-27T01:07:37.881Z,95610.35
2019-04-27T01:08:42.757Z,95610.35
2019-04-27T01:09:46.456Z,95618.11
2019-04-27T01:10:49.973Z,95612.61
2019-04-27T01:11:53.549Z,95612.61
2019-04-27T01:12:57.043Z,95623.19
2019-04-27T01:14:00.540Z,95613.48
2019-04-27T01:15:05.005Z,95616.22
2019-04-27T01:16:10.498Z,95617.63
2019-04-27T01:17:14.117Z,95607.89
2019-04-27T01:18:19.393Z,95607.89
2019-04-27T01:19:22.846Z,95611.34
2019-04-27T01:20:26.349Z,95615.14
2019-04-27T01:21:29.868Z,95615.51
2019-04-27T01:22:33.238Z,95613.98
2019-04-27T01:23:38.218Z,95612.76
2019-04-27T01:24:41.936Z,95619.91
2019-04-27T01:26:03.066Z,95621.13
2019-04-27T01:27:14.196Z,95619.47
2019-04-27T01:28:29.059Z,95620.39
2019-04-27T01:29:36.710Z,95620.78
2019-04-27T01:30:44.730Z,95624.69
2019-04-27T01:31:48.653Z,95613.72
2019-04-27T01:32:52.249Z,95613.72
2019-04-27T01:33:55.688Z,95620.05
2019-04-27T01:34:59.595Z,95626.53
2019-04-27T01:36:03.020Z,95627.78
2019-04-27T01:37:06.631Z,95623.91
2019-04-27T01:38:10.058Z,95623.67
2019-04-27T01:39:15.379Z,95624.92
2019-04-27T01:40:19.365Z,95633.11
2019-04-27T01:41:22.868Z,95633.11
2019-04-27T01:42:26.299Z,95627.20
2019-04-27T01:43:30.275Z,95627.20
2019-04-27T01:44:33.733Z,95635.89
2019-04-27T01:45:39.128Z,95626.11
2019-04-27T01:46:42.791Z,95636.67
2019-04-27T01:47:46.220Z,95634.77
2019-04-27T01:48:49.644Z,95634.21
2019-04-27T01:49:53.143Z,95637.50
2019-04-27T01:50:56.702Z,95629.64
2019-04-27T01:52:00.223Z,95634.58
2019-04-27T01:53:03.732Z,95634.39
2019-04-27T01:54:10.462Z,95640.27
2019-04-27T01:55:14.341Z,95632.08
2019-04-27T01:56:19.472Z,95638.23
2019-04-27T01:57:23.104Z,95630.28
2019-04-27T01:58:26.617Z,95637.47
2019-04-27T01:59:30.115Z,95636.41
2019-04-27T02:00:54.264Z,95635.09
2019-04-27T02:01:59.349Z,95636.01
2019-04-27T02:03:04.427Z,95633.02
2019-04-27T02:04:29.371Z,95635.09
2019-04-27T02:05:39.039Z,95637.66
2019-04-27T02:06:42.659Z,95637.86
2019-04-27T02:07:46.165Z,95634.72
2019-04-27T02:08:49.702Z,95639.16
2019-04-27T02:09:53.127Z,95632.38
2019-04-27T02:10:56.553Z,95637.39
2019-04-27T02:11:59.982Z,95631.71
2019-04-27T02:13:03.637Z,95639.20
2019-04-27T02:14:07.220Z,95630.88
2019-04-27T02:15:10.814Z,95636.63
2019-04-27T02:16:14.284Z,95627.47
2019-04-27T02:17:18.700Z,95632.41
2019-04-27T02:18:34.620Z,95632.80
2019-04-27T02:19:29.221Z,95635.84
2019-04-27T02:20:32.774Z,95631.55
2019-04-27T02:21:36.370Z,95638.17
2019-04-27T02:22:39.888Z,95628.36
2019-04-27T02:23:43.402Z,95625.99
2019-04-27T02:24:46.831Z,95627.38
2019-04-27T02:25:50.423Z,95625.28
2019-04-27T02:26:53.926Z,95619.90
2019-04-27T02:28:01.782Z,95619.90
2019-04-27T02:29:08.698Z,95622.52
2019-04-27T02:30:30.701Z,95617.68
2019-04-27T02:31:35.859Z,95622.66
2019-04-27T02:32:46.378Z,95616.11
2019-04-27T02:33:51.600Z,95616.84
2019-04-27T02:34:56.698Z,95613.87
2019-04-27T02:36:00.506Z,95617.43
2019-04-27T02:37:04.699Z,95611.22
2019-04-27T02:38:10.090Z,95606.78
2019-04-27T02:39:13.374Z,95605.97
2019-04-27T02:40:44.988Z,95608.98
2019-04-27T02:41:49.874Z,95602.59
2019-04-27T02:42:54.602Z,95606.41
2019-04-27T02:44:15.748Z,95595.69
2019-04-27T02:45:19.560Z,95596.63
2019-04-27T02:46:24.567Z,95600.12
2019-04-27T02:47:29.485Z,95599.10
2019-04-27T02:48:33.010Z,95600.63
2019-04-27T02:49:36.511Z,95600.98
2019-04-27T02:50:40.146Z,95602.94
2019-04-27T02:51:45.317Z,95602.27
2019-04-27T02:52:50.058Z,95602.70
2019-04-27T02:54:00.128Z,95604.23
2019-04-27T02:55:03.937Z,95604.41
2019-04-27T02:56:10.045Z,95605.41
2019-04-27T02:57:12.612Z,95602.28
2019-04-27T02:58:16.041Z,95602.64
2019-04-27T02:59:19.957Z,95593.81
2019-04-27T03:00:23.631Z,95598.35
2019-04-27T03:01:30.501Z,95601.00
2019-04-27T03:02:35.763Z,95596.00
2019-04-27T03:03:41.104Z,95599.94
2019-04-27T03:04:44.354Z,95602.91
2019-04-27T03:05:50.275Z,95597.44
2019-04-27T03:06:53.098Z,95597.05
2019-04-27T03:07:59.371Z,95597.05
2019-04-27T03:09:01.890Z,95604.89
2019-04-27T03:10:06.788Z,95602.16
2019-04-27T03:11:10.303Z,95594.70
2019-04-27T03:12:14.597Z,95603.91
2019-04-27T03:13:22.605Z,95606.17
2019-04-27T03:14:36.047Z,95604.86
2019-04-27T03:15:40.374Z,95603.00
2019-04-27T03:17:00.672Z,95599.94
2019-04-27T03:18:24.014Z,95600.51
2019-04-27T03:19:45.058Z,95603.95
2019-04-27T03:20:50.498Z,95607.11
2019-04-27T03:22:01.568Z,95608.27
2019-04-27T03:23:06.704Z,95609.39
2019-04-27T03:24:10.204Z,95607.33
2019-04-27T03:25:15.926Z,95617.13
2019-04-27T03:26:21.197Z,95614.05
2019-04-27T03:27:26.399Z,95614.05
2019-04-27T03:28:30.011Z,95614.63
2019-04-27T03:29:33.655Z,95614.63
2019-04-27T03:30:41.756Z,95621.97
2019-04-27T03:31:47.558Z,95616.52
2019-04-27T03:32:55.017Z,95620.55
2019-04-27T03:33:58.967Z,95616.95
2019-04-27T03:35:02.692Z,95612.84
2019-04-27T03:36:03.742Z,95614.66
2019-04-27T03:37:10.138Z,95615.00
2019-04-27T03:38:12.703Z,95612.65
2019-04-27T03:39:16.183Z,95614.62
2019-04-27T03:40:20.485Z,95612.15
2019-04-27T03:41:24.152Z,95610.87
2019-04-27T03:42:29.310Z,95607.27
2019-04-27T03:43:32.879Z,95615.39
2019-04-27T03:44:36.448Z,95615.39
2019-04-27T03:45:40.204Z,95615.91
2019-04-27T03:46:43.799Z,95616.02
2019-04-27T03:47:47.248Z,95610.73
2019-04-27T03:48:50.828Z,95610.73
2019-04-27T03:49:54.612Z,95618.67
2019-04-27T03:51:02.896Z,95610.37
2019-04-27T03:52:10.797Z,95610.19
2019-04-27T03:53:20.558Z,95608.94
2019-04-27T03:54:29.638Z,95607.63
2019-04-27T03:55:34.898Z,95601.85
2019-04-27T03:56:50.849Z,95597.98
2019-04-27T03:58:12.098Z,95598.23
2019-04-27T03:59:23.528Z,95598.61
2019-04-27T04:00:29.994Z,95598.61
2019-04-27T04:01:33.809Z,95597.21
2019-04-27T04:02:40.048Z,95602.48
2019-04-27T04:03:42.786Z,95599.02
2019-04-27T04:04:46.363Z,95600.39
2019-04-27T04:05:51.910Z,95598.89
2019-04-27T04:06:56.635Z,95599.66
2019-04-27T04:08:00.562Z,95606.45
2019-04-27T04:09:06.840Z,95600.88
2019-04-27T04:10:10.970Z,95607.31
2019-04-27T04:11:34.062Z,95607.31
2019-04-27T04:12:40.077Z,95606.04
2019-04-27T04:13:50.674Z,95604.44
2019-04-27T04:14:54.175Z,95605.23
2019-04-27T04:16:01.919Z,95603.13
2019-04-27T04:17:07.120Z,95603.83
2019-04-27T04:18:12.341Z,95601.81
2019-04-27T04:19:15.802Z,95610.41
2019-04-27T04:20:20.195Z,95610.41
2019-04-27T04:21:23.808Z,95608.34
2019-04-27T04:22:27.232Z,95606.23
2019-04-27T04:23:30.758Z,95604.38
2019-04-27T04:24:34.206Z,95604.38
2019-04-27T04:25:37.633Z,95608.94
2019-04-27T04:26:42.858Z,95611.75
2019-04-27T04:27:46.296Z,95605.08
2019-04-27T04:28:50.092Z,95605.08
2019-04-27T04:29:53.539Z,95609.88
2019-04-27T04:30:56.970Z,95605.89
2019-04-27T04:32:00.710Z,95611.22
2019-04-27T04:33:04.304Z,95610.46
2019-04-27T04:34:09.721Z,95610.98
2019-04-27T04:35:21.120Z,95607.51
2019-04-27T04:36:23.762Z,95607.51
2019-04-27T04:37:29.426Z,95612.88
2019-04-27T04:38:32.400Z,95611.66
2019-04-27T04:39:35.984Z,95615.77
2019-04-27T04:40:43.752Z,95618.38
2019-04-27T04:41:51.023Z,95614.61
2019-04-27T04:42:55.687Z,95613.45
2019-04-27T04:44:00.742Z,95614.42
2019-04-27T04:45:10.380Z,95611.83
2019-04-27T04:46:23.670Z,95605.29
2019-04-27T04:47:49.567Z,95613.11
2019-04-27T04:48:52.457Z,95608.39
2019-04-27T04:50:10.232Z,95613.42
2019-04-27T04:51:01.308Z,95610.44
2019-04-27T04:52:04.802Z,95606.08
2019-04-27T04:53:11.774Z,95606.41
2019-04-27T04:54:13.370Z,95614.03
2019-04-27T04:55:16.956Z,95613.02
2019-04-27T04:56:20.459Z,95610.70
2019-04-27T04:57:23.958Z,95614.30
2019-04-27T04:58:29.270Z,95609.22
2019-04-27T04:59:32.610Z,95614.06
2019-04-27T05:00:36.104Z,95614.06
2019-04-27T05:01:39.996Z,95609.03
2019-04-27T05:02:43.601Z,95609.03
2019-04-27T05:03:48.733Z,95613.75
2019-04-27T05:04:52.276Z,95618.23
2019-04-27T05:05:55.707Z,95618.23
2019-04-27T05:06:59.358Z,95609.73
2019-04-27T05:08:02.784Z,95619.69
2019-04-27T05:09:06.525Z,95616.06
2019-04-27T05:10:10.055Z,95612.81
2019-04-27T05:11:13.544Z,95618.69
2019-04-27T05:12:16.972Z,95619.69
2019-04-27T05:13:20.408Z,95618.90
2019-04-27T05:14:23.889Z,95621.52
2019-04-27T05:15:29.204Z,95626.69
2019-04-27T05:16:32.889Z,95626.69
2019-04-27T05:17:36.418Z,95620.15
2019-04-27T05:18:41.495Z,95632.72
2019-04-27T05:19:44.928Z,95634.77
2019-04-27T05:20:52.808Z,95634.06
2019-04-27T05:21:56.235Z,95640.09
2019-04-27T05:22:59.748Z,95639.91
2019-04-27T05:24:03.423Z,95635.61
2019-04-27T05:25:06.845Z,95634.70
2019-04-27T05:26:10.298Z,95634.70
2019-04-27T05:27:13.727Z,95634.94
2019-04-27T05:28:18.769Z,95628.67
2019-04-27T05:29:22.259Z,95633.87
2019-04-27T05:30:25.818Z,95638.45
2019-04-27T05:31:29.853Z,95632.61
2019-04-27T05:32:33.257Z,95632.61
2019-04-27T05:33:36.673Z,95631.36
2019-04-27T05:34:40.164Z,95629.84
2019-04-27T05:35:43.585Z,95625.52
2019-04-27T05:36:48.963Z,95630.97
2019-04-27T05:37:52.190Z,95626.86
2019-04-27T05:38:55.612Z,95626.86
2019-04-27T05:39:59.039Z,95630.53
2019-04-27T05:41:02.556Z,95634.66
2019-04-27T05:42:06.076Z,95633.64
2019-04-27T05:43:10.475Z,95633.30
2019-04-27T05:44:18.284Z,95630.67
2019-04-27T05:45:37.266Z,95629.45
2019-04-27T05:46:42.363Z,95628.91
2019-04-27T05:47:50.414Z,95633.45
2019-04-27T05:48:52.649Z,95626.17
2019-04-27T05:49:58.929Z,95626.17
2019-04-27T05:51:02.331Z,95631.50
2019-04-27T05:52:08.616Z,95639.36
2019-04-27T05:53:12.560Z,95640.70
2019-04-27T05:54:15.986Z,95641.08
2019-04-27T05:55:19.482Z,95638.09
2019-04-27T05:56:23.006Z,95634.74
2019-04-27T05:57:30.780Z,95636.16
2019-04-27T05:58:31.903Z,95640.04
2019-04-27T05:59:35.363Z,95639.75
2019-04-27T06:00:39.393Z,95642.41
2019-04-27T06:01:42.828Z,95643.16
2019-04-27T06:02:46.259Z,95641.77
2019-04-27T06:03:49.899Z,95643.86
2019-04-27T06:04:53.340Z,95647.84
2019-04-27T06:05:56.791Z,95647.61
2019-04-27T06:07:01.014Z,95652.34
2019-04-27T06:08:04.709Z,95649.80
2019-04-27T06:09:09.491Z,95653.63
2019-04-27T06:10:13.223Z,95646.69
2019-04-27T06:11:16.720Z,95646.69
2019-04-27T06:12:20.226Z,95657.25
2019-04-27T06:13:23.725Z,95655.50
2019-04-27T06:14:27.151Z,95655.50
2019-04-27T06:15:30.651Z,95663.52
2019-04-27T06:16:34.075Z,95658.56
2019-04-27T06:17:38.693Z,95665.38
2019-04-27T06:18:44.741Z,95665.38
2019-04-27T06:19:49.306Z,95661.05
2019-04-27T06:20:55.708Z,95668.38
2019-04-27T06:21:59.478Z,95662.53
2019-04-27T06:23:03.085Z,95662.53
2019-04-27T06:24:06.580Z,95657.83
2019-04-27T06:25:11.679Z,95660.27
2019-04-27T06:26:15.484Z,95654.16
2019-04-27T06:27:20.969Z,95646.02
2019-04-27T06:28:24.088Z,95657.64
2019-04-27T06:29:29.284Z,95657.64
2019-04-27T06:30:32.862Z,95655.19
2019-04-27T06:31:36.300Z,95649.16
2019-04-27T06:32:39.721Z,95651.91
2019-04-27T06:33:43.179Z,95647.09
2019-04-27T06:34:46.682Z,95649.45
2019-04-27T06:35:50.551Z,95650.63
2019-04-27T06:36:53.972Z,95649.70
2019-04-27T06:37:58.567Z,95652.89
2019-04-27T06:39:02.125Z,95647.61
2019-04-27T06:40:06.808Z,95647.61
2019-04-27T06:41:10.295Z,95649.94
2019-04-27T06:42:18.533Z,95646.98
2019-04-27T06:43:19.017Z,95652.25
2019-04-27T06:44:22.475Z,95652.25
2019-04-27T06:45:25.915Z,95650.39
2019-04-27T06:46:29.334Z,95648.55
2019-04-27T06:47:32.764Z,95648.55
2019-04-27T06:48:36.265Z,95650.48
2019-04-27T06:49:39.791Z,95643.84
2019-04-27T06:50:43.217Z,95647.73
2019-04-27T06:51:46.662Z,95642.14
2019-04-27T06:52:50.073Z,95653.73
2019-04-27T06:53:53.500Z,95650.81
2019-04-27T06:54:57.023Z,95648.11
2019-04-27T06:56:00.443Z,95651.36
2019-04-27T06:57:04.038Z,95646.80
2019-04-27T06:58:08.993Z,95648.09
2019-04-27T06:59:12.532Z,95647.52
2019-04-27T07:00:16.025Z,95647.43
2019-04-27T07:01:19.457Z,95656.98
2019-04-27T07:02:22.955Z,95656.52
2019-04-27T07:03:26.383Z,95651.52
2019-04-27T07:04:29.834Z,95650.83
2019-04-27T07:05:33.258Z,95646.48
2019-04-27T07:06:36.687Z,95650.09
2019-04-27T07:07:40.119Z,95650.80
2019-04-27T07:08:43.541Z,95653.06
2019-04-27T07:09:47.004Z,95653.36
2019-04-27T07:10:50.428Z,95651.64
2019-04-27T07:11:53.855Z,95652.77
2019-04-27T07:12:57.285Z,95653.96
2019-04-27T07:14:00.721Z,95653.10
2019-04-27T07:15:06.211Z,95656.52
2019-04-27T07:16:09.730Z,95653.89
2019-04-27T07:17:13.313Z,95655.25
2019-04-27T07:18:18.536Z,95652.81
2019-04-27T07:19:22.123Z,95650.27
2019-04-27T07:20:25.548Z,95652.42
2019-04-27T07:21:29.207Z,95645.48
2019-04-27T07:22:32.737Z,95651.23
2019-04-27T07:23:38.860Z,95646.78
2019-04-27T07:24:42.474Z,95648.09
2019-04-27T07:25:45.927Z,95649.02
2019-04-27T07:26:49.358Z,95646.14
2019-04-27T07:27:52.785Z,95648.19
2019-04-27T07:28:56.451Z,95648.16
2019-04-27T07:30:01.712Z,95643.22
2019-04-27T07:31:05.266Z,95642.75
2019-04-27T07:32:09.288Z,95642.83
2019-04-27T07:33:12.735Z,95649.93
2019-04-27T07:34:16.248Z,95649.11
2019-04-27T07:35:19.896Z,95650.69
2019-04-27T07:36:23.319Z,95642.00
2019-04-27T07:37:26.741Z,95644.23
2019-04-27T07:38:30.233Z,95641.67
2019-04-27T07:39:33.686Z,95643.20
2019-04-27T07:40:40.036Z,95645.94
2019-04-27T07:41:42.268Z,95642.43
2019-04-27T07:42:47.360Z,95646.78
2019-04-27T07:43:52.443Z,95634.58
2019-04-27T07:45:09.330Z,95651.02
2019-04-27T07:46:14.305Z,95643.34
2019-04-27T07:47:19.630Z,95637.15
2019-04-27T07:48:23.043Z,95638.30
2019-04-27T07:49:26.476Z,95647.15
2019-04-27T07:50:29.932Z,95640.97
2019-04-27T07:51:34.445Z,95638.98
2019-04-27T07:52:40.280Z,95642.93
2019-04-27T07:53:43.138Z,95647.08
2019-04-27T07:54:46.660Z,95639.58
2019-04-27T07:55:50.110Z,95639.44
2019-04-27T07:56:53.542Z,95638.86
2019-04-27T07:57:56.973Z,95641.66
2019-04-27T07:59:00.462Z,95632.67
2019-04-27T08:00:09.391Z,95632.94
2019-04-27T08:01:12.884Z,95633.33
2019-04-27T08:02:16.453Z,95631.48
2019-04-27T08:03:19.885Z,95634.69
2019-04-27T08:04:23.389Z,95631.30
2019-04-27T08:05:26.836Z,95634.14
2019-04-27T08:06:30.337Z,95629.46
2019-04-27T08:07:33.767Z,95626.48
2019-04-27T08:08:37.202Z,95629.86
2019-04-27T08:09:40.703Z,95631.36
2019-04-27T08:10:44.149Z,95624.38
2019-04-27T08:11:48.806Z,95620.97
2019-04-27T08:12:52.376Z,95625.06
2019-04-27T08:13:55.812Z,95629.61
2019-04-27T08:15:00.034Z,95627.16
2019-04-27T08:16:03.621Z,95623.95
2019-04-27T08:17:07.055Z,95618.90
2019-04-27T08:18:10.486Z,95624.53
2019-04-27T08:19:13.934Z,95626.20
2019-04-27T08:20:20.875Z,95623.57
2019-04-27T08:21:22.590Z,95627.63
2019-04-27T08:22:26.035Z,95621.05
2019-04-27T08:23:29.558Z,95617.91
2019-04-27T08:24:33.087Z,95621.47
2019-04-27T08:25:36.503Z,95620.97
2019-04-27T08:26:44.451Z,95624.73
2019-04-27T08:27:52.073Z,95621.17
2019-04-27T08:29:13.019Z,95624.94
2019-04-27T08:30:30.333Z,95623.27
2019-04-27T08:31:35.532Z,95624.94
2019-04-27T08:32:43.400Z,95622.89
2019-04-27T08:33:48.547Z,95628.88
2019-04-27T08:34:52.127Z,95624.73
2019-04-27T08:35:55.557Z,95615.36
2019-04-27T08:37:00.749Z,95620.82
2019-04-27T08:38:04.464Z,95614.95
2019-04-27T08:39:08.899Z,95617.03
2019-04-27T08:40:12.576Z,95616.47
2019-04-27T08:41:16.078Z,95613.49
2019-04-27T08:42:19.536Z,95614.42
2019-04-27T08:43:22.966Z,95614.06
2019-04-27T08:44:26.403Z,95606.38
2019-04-27T08:45:29.836Z,95609.97
2019-04-27T08:46:33.288Z,95612.03
2019-04-27T08:47:36.782Z,95600.95
2019-04-27T08:48:40.216Z,95607.93
2019-04-27T08:49:43.649Z,95603.40
2019-04-27T08:50:48.624Z,95602.64
2019-04-27T08:51:58.807Z,95600.21
2019-04-27T08:52:57.489Z,95601.90
2019-04-27T08:54:00.905Z,95596.64
2019-04-27T08:55:06.472Z,95606.97
2019-04-27T08:56:09.975Z,95601.72
2019-04-27T08:57:13.437Z,95599.83
2019-04-27T08:58:19.725Z,95603.40
2019-04-27T08:59:22.003Z,95604.52
2019-04-27T09:00:25.496Z,95595.13
2019-04-27T09:01:29.904Z,95596.82
2019-04-27T09:02:44.120Z,95596.45
2019-04-27T09:03:39.518Z,95593.03
2019-04-27T09:04:43.037Z,95599.41
2019-04-27T09:05:46.463Z,95595.83
2019-04-27T09:06:51.550Z,95591.31
2019-04-27T09:08:14.034Z,95596.19
2019-04-27T09:09:33.882Z,95591.68
2019-04-27T09:10:51.053Z,95587.16
2019-04-27T09:12:05.137Z,95584.48
2019-04-27T09:13:10.188Z,95579.75
2019-04-27T09:14:20.967Z,95576.72
2019-04-27T09:15:29.273Z,95583.31
2019-04-27T09:16:38.837Z,95577.16
2019-04-27T09:17:43.985Z,95577.91
2019-04-27T09:18:49.715Z,95573.94
2019-04-27T09:19:59.156Z,95576.42
2019-04-27T09:21:04.078Z,95574.35
2019-04-27T09:22:15.662Z,95566.08
2019-04-27T09:23:15.351Z,95564.36
2019-04-27T09:24:18.911Z,95560.96
2019-04-27T09:25:22.359Z,95567.33
2019-04-27T09:26:25.853Z,95573.50
2019-04-27T09:27:29.281Z,95565.77
2019-04-27T09:28:35.736Z,95565.06
2019-04-27T09:29:39.628Z,95569.38
2019-04-27T09:30:43.142Z,95565.98
2019-04-27T09:31:46.581Z,95566.55
2019-04-27T09:32:50.020Z,95563.33
2019-04-27T09:33:53.473Z,95574.20
2019-04-27T09:34:57.090Z,95561.36
2019-04-27T09:36:00.485Z,95560.17
2019-04-27T09:37:03.992Z,95563.34
2019-04-27T09:38:07.500Z,95564.98
2019-04-27T09:39:12.106Z,95555.66
2019-04-27T09:40:17.137Z,95560.97
2019-04-27T09:41:20.613Z,95564.42
2019-04-27T09:42:24.043Z,95563.08
2019-04-27T09:43:27.496Z,95565.91
2019-04-27T09:44:30.932Z,95555.03
2019-04-27T09:45:34.431Z,95559.35
2019-04-27T09:46:37.859Z,95560.34
2019-04-27T09:47:41.289Z,95557.94
2019-04-27T09:48:46.468Z,95550.23
2019-04-27T09:49:50.093Z,95554.51
2019-04-27T09:50:53.621Z,95551.28
2019-04-27T09:51:57.048Z,95545.25
2019-04-27T09:53:00.489Z,95541.13
2019-04-27T09:54:05.765Z,95550.52
2019-04-27T09:55:09.551Z,95546.92
2019-04-27T09:56:12.989Z,95548.41
2019-04-27T09:57:16.559Z,95543.01
2019-04-27T09:58:20.005Z,95545.71
2019-04-27T09:59:23.461Z,95538.00
2019-04-27T10:00:27.872Z,95545.68
2019-04-27T10:01:31.480Z,95545.48
2019-04-27T10:02:36.555Z,95545.52
2019-04-27T10:03:40.154Z,95540.59
2019-04-27T10:04:43.586Z,95544.32
2019-04-27T10:05:47.029Z,95541.45
2019-04-27T10:06:50.569Z,95545.94
2019-04-27T10:07:54.068Z,95539.58
2019-04-27T10:08:57.725Z,95540.11
2019-04-27T10:10:01.232Z,95539.19
2019-04-27T10:11:05.954Z,95538.62
2019-04-27T10:12:09.517Z,95529.59
2019-04-27T10:13:13.014Z,95541.82
2019-04-27T10:14:16.610Z,95527.13
2019-04-27T10:15:20.183Z,95530.32
2019-04-27T10:16:25.595Z,95529.73
2019-04-27T10:17:28.917Z,95533.13
2019-04-27T10:18:32.372Z,95535.39
2019-04-27T10:19:36.572Z,95536.84
2019-04-27T10:20:41.054Z,95532.09
2019-04-27T10:21:44.630Z,95531.66
2019-04-27T10:22:48.141Z,95528.07
2019-04-27T10:23:51.602Z,95536.86
2019-04-27T10:24:55.042Z,95535.45
2019-04-27T10:25:58.487Z,95526.66
2019-04-27T10:27:01.931Z,95529.46
2019-04-27T10:28:06.766Z,95527.31
2019-04-27T10:29:10.359Z,95524.31
2019-04-27T10:30:15.327Z,95525.20
2019-04-27T10:31:19.231Z,95522.95
2019-04-27T10:32:22.652Z,95518.59
2019-04-27T10:33:26.650Z,95520.67
2019-04-27T10:34:30.139Z,95521.19
2019-04-27T10:35:33.572Z,95520.23
2019-04-27T10:36:39.427Z,95516.59
2019-04-27T10:37:42.835Z,95521.61
2019-04-27T10:38:46.372Z,95513.30
2019-04-27T10:39:49.805Z,95516.20
2019-04-27T10:40:53.301Z,95507.97
2019-04-27T10:41:56.747Z,95517.11
2019-04-27T10:43:00.175Z,95502.98
2019-04-27T10:44:03.640Z,95506.40
2019-04-27T10:45:08.379Z,95504.91
2019-04-27T10:46:11.819Z,95507.47
2019-04-27T10:47:15.847Z,95511.66
2019-04-27T10:48:19.336Z,95505.84
2019-04-27T10:49:22.883Z,95511.98
2019-04-27T10:50:26.682Z,95507.03
2019-04-27T10:51:30.236Z,95507.54
2019-04-27T10:52:33.681Z,95512.87
2019-04-27T10:53:38.964Z,95503.91
2019-04-27T10:54:42.393Z,95502.13
2019-04-27T10:55:46.421Z,95505.84
2019-04-27T10:56:49.998Z,95503.61
2019-04-27T10:57:53.495Z,95507.52
2019-04-27T10:58:57.034Z,95503.06
2019-04-27T11:00:00.536Z,95497.27
2019-04-27T11:01:05.693Z,95487.91
2019-04-27T11:02:09.254Z,95496.87
2019-04-27T11:03:14.308Z,95489.63
2019-04-27T11:04:22.156Z,95497.36
2019-04-27T11:05:31.239Z,95484.21
2019-04-27T11:06:36.462Z,95485.98
2019-04-27T11:07:40.830Z,95487.55
2019-04-27T11:08:44.310Z,95486.28
2019-04-27T11:09:47.754Z,95488.69
2019-04-27T11:10:51.329Z,95484.47
2019-04-27T11:11:56.596Z,95487.55
2019-04-27T11:13:00.152Z,95483.88
2019-04-27T11:14:03.840Z,95485.21
2019-04-27T11:15:09.432Z,95480.52
2019-04-27T11:16:12.997Z,95478.98
2019-04-27T11:17:16.520Z,95471.67
2019-04-27T11:18:19.931Z,95466.81
2019-04-27T11:19:23.394Z,95456.86
2019-04-27T11:20:27.784Z,95458.95
2019-04-27T11:21:31.369Z,95465.30
2019-04-27T11:22:36.322Z,95456.80
2019-04-27T11:23:39.845Z,95457.03
2019-04-27T11:24:43.315Z,95451.27
2019-04-27T11:25:46.959Z,95460.42
2019-04-27T11:26:50.385Z,95461.68
2019-04-27T11:27:55.620Z,95461.19
2019-04-27T11:28:59.040Z,95462.05
2019-04-27T11:30:02.753Z,95468.92
2019-04-27T11:31:06.924Z,95462.17
2019-04-27T11:32:10.495Z,95461.48
2019-04-27T11:33:14.001Z,95466.02
2019-04-27T11:34:17.657Z,95461.67
2019-04-27T11:35:22.821Z,95454.70
2019-04-27T11:36:27.964Z,95461.66
2019-04-27T11:37:33.102Z,95457.89
2019-04-27T11:38:36.683Z,95461.64
2019-04-27T11:39:40.253Z,95456.21
2019-04-27T11:40:43.780Z,95464.03
2019-04-27T11:41:47.363Z,95454.16
2019-04-27T11:42:50.860Z,95453.11
2019-04-27T11:43:54.297Z,95445.95
2019-04-27T11:44:58.395Z,95450.37
2019-04-27T11:46:01.834Z,95445.88
2019-04-27T11:47:06.023Z,95453.34
2019-04-27T11:48:09.526Z,95460.75
2019-04-27T11:49:12.956Z,95459.20
2019-04-27T11:50:16.813Z,95469.96
2019-04-27T11:51:20.340Z,95470.30
2019-04-27T11:52:23.764Z,95477.06
2019-04-27T11:53:27.216Z,95466.91
2019-04-27T11:54:30.645Z,95475.80
2019-04-27T11:55:34.231Z,95466.05
2019-04-27T11:56:37.831Z,95475.34
2019-04-27T11:57:41.346Z,95473.56
2019-04-27T11:58:44.772Z,95463.54
2019-04-27T11:59:48.215Z,95467.09
2019-04-27T12:00:51.638Z,95456.05
2019-04-27T12:01:55.954Z,95457.75
2019-04-27T12:02:59.376Z,95448.31
2019-04-27T12:04:02.807Z,95445.88
2019-04-27T12:05:08.092Z,95460.13
2019-04-27T12:06:11.571Z,95462.28
2019-04-27T12:07:15.088Z,95460.77
2019-04-27T12:08:18.529Z,95462.44
2019-04-27T12:09:21.946Z,95455.21
2019-04-27T12:10:26.289Z,95458.66
2019-04-27T12:11:29.821Z,95453.41
2019-04-27T12:12:33.588Z,95449.70
2019-04-27T12:13:37.026Z,95453.25
2019-04-27T12:14:40.450Z,95450.36
2019-04-27T12:15:44.010Z,95440.11
2019-04-27T12:16:47.469Z,95456.92
2019-04-27T12:17:50.923Z,95439.44
2019-04-27T12:18:56.234Z,95447.17
2019-04-27T12:19:59.502Z,95466.18
2019-04-27T12:21:03.020Z,95459.50
2019-04-27T12:22:06.546Z,95459.16
2019-04-27T12:23:09.977Z,95464.52
2019-04-27T12:24:13.473Z,95467.25
2019-04-27T12:25:17.158Z,95464.11
2019-04-27T12:26:28.027Z,95465.88
2019-04-27T12:27:33.234Z,95466.98
2019-04-27T12:28:45.870Z,95479.91
2019-04-27T12:30:02.931Z,95468.86
2019-04-27T12:31:10.995Z,95476.83
2019-04-27T12:32:15.637Z,95474.02
2019-04-27T12:33:19.132Z,95474.81
2019-04-27T12:34:22.563Z,95471.82
2019-04-27T12:35:25.989Z,95474.29
2019-04-27T12:36:29.498Z,95478.09
2019-04-27T12:37:32.975Z,95484.00
2019-04-27T12:38:36.684Z,95472.63
2019-04-27T12:39:40.169Z,95476.31
2019-04-27T12:40:43.602Z,95469.82
2019-04-27T12:41:47.089Z,95479.42
2019-04-27T12:42:50.664Z,95485.27
2019-04-27T12:43:56.006Z,95477.98